Airfield :
LOGIN :

Register | Disclaimer

   EN    FR    IT 

 










Legend :    VFR   Marginal VFR   IFR   Intensive IFR   Very Intensive IFR
Visi :
Ceiling :
>= 8 km
>= 3000ft
5 to 8 km
1000 to 3000 ft
1500m to 5 km
500 to 1000 ft
800 to 1500m
200 to 500 ft
< 800m
< 200 ft
Symbols :   Thunderstorms  Fog  Heavy snow  Heavy precipitations  Wind > 20 kt
SIGMETs :     Misc.  Thunderstorms  Icing  Turbulence  Mountain Waves  Volcanic Ashes






- Airport Elevation : 102 ft
- IATA code : EXT


EGTE - Exeter

CURRENT METAR :
  • 271220Z 22010KT 200V260 9999 VCSH FEW025CB 16/10 Q1012

EXPIRED METARs :
  • 271150Z 23010KT 9999 VCSH FEW025CB 14/10 Q1012
  • 271120Z 24013G25KT 9999 VCSH FEW025CB 16/10 Q1012
  • 271050Z 22009KT 9999 FEW025TCU 15/11 Q1011
  • 271020Z 23009KT 9999 VCSH FEW025CB 12/11 Q1011 RESHRA
  • 270950Z 25012KT 230V290 9999 9000W VCSH SCT027CB 15/10 Q1010

TAF TAF EGTE
Valid from the 27 at 12:00 until the 27 at 18:00 UTC


271059Z 2712/2718 25010KT 9999 SCT040
TEMPO 2712/2718 7000 SHRA
PROB30
TEMPO 2712/2718 27015G26KT 4000 +SHRA



MET'MAP, your aeronautical weather chart ! - Copyright ORBIFLY December 2007 - Disclaimer

ORBIFLY MET'MAP TEAM :

Programming & Development : Alexandra Zaïnal
Concept & original design : Baudouin d'Aumeries
Assistance for programming : Marc-Olivier Méhu
Technical & hardware support : Manuel Goepfert

Contact : metmap@orbifly.com




SOURCES & CREDITS :

   NOAA